sensor_id;sensor_type;location;lat;lon;timestamp;temperature;humidity
30851;DHT22;17567;48.382;9.102;2023-04-03T00:02:17;2.70;99.90
30851;DHT22;17567;48.382;9.102;2023-04-03T00:07:19;2.80;99.90
30851;DHT22;17567;48.382;9.102;2023-04-03T00:12:20;2.70;99.90
30851;DHT22;17567;48.382;9.102;2023-04-03T00:17:20;2.70;99.90
30851;DHT22;17567;48.382;9.102;2023-04-03T00:22:21;2.70;99.90
30851;DHT22;17567;48.382;9.102;2023-04-03T00:27:21;2.70;99.90
30851;DHT22;17567;48.382;9.102;2023-04-03T00:32:22;2.60;99.90
30851;DHT22;17567;48.382;9.102;2023-04-03T00:37:23;2.50;99.90
30851;DHT22;17567;48.382;9.102;2023-04-03T00:42:24;2.50;99.90
30851;DHT22;17567;48.382;9.102;2023-04-03T00:47:25;2.50;99.90
30851;DHT22;17567;48.382;9.102;2023-04-03T00:52:29;2.40;99.90
30851;DHT22;17567;48.382;9.102;2023-04-03T00:57:31;2.30;99.90
30851;DHT22;17567;48.382;9.102;2023-04-03T01:02:32;2.30;99.90
30851;DHT22;17567;48.382;9.102;2023-04-03T01:07:32;2.30;99.90
30851;DHT22;17567;48.382;9.102;2023-04-03T01:12:38;2.20;99.90
30851;DHT22;17567;48.382;9.102;2023-04-03T01:17:42;2.30;99.90
30851;DHT22;17567;48.382;9.102;2023-04-03T01:22:54;2.30;99.90
30851;DHT22;17567;48.382;9.102;2023-04-03T01:27:56;2.40;99.90
30851;DHT22;17567;48.382;9.102;2023-04-03T01:32:57;2.40;99.90
30851;DHT22;17567;48.382;9.102;2023-04-03T01:37:57;2.40;99.90
30851;DHT22;17567;48.382;9.102;2023-04-03T01:42:58;2.40;99.90
30851;DHT22;17567;48.382;9.102;2023-04-03T01:47:58;2.40;99.90
30851;DHT22;17567;48.382;9.102;2023-04-03T01:52:59;2.30;99.90
30851;DHT22;17567;48.382;9.102;2023-04-03T01:58:00;2.30;99.90
30851;DHT22;17567;48.382;9.102;2023-04-03T02:03:01;2.30;99.90
30851;DHT22;17567;48.382;9.102;2023-04-03T02:08:01;2.30;99.90
30851;DHT22;17567;48.382;9.102;2023-04-03T02:13:02;2.30;99.90
30851;DHT22;17567;48.382;9.102;2023-04-03T02:18:03;2.30;99.90
30851;DHT22;17567;48.382;9.102;2023-04-03T02:23:04;2.40;99.90
30851;DHT22;17567;48.382;9.102;2023-04-03T02:28:05;2.30;99.90
30851;DHT22;17567;48.382;9.102;2023-04-03T02:33:06;2.20;99.90
30851;DHT22;17567;48.382;9.102;2023-04-03T02:38:06;2.20;99.90
30851;DHT22;17567;48.382;9.102;2023-04-03T02:43:07;2.30;99.90
30851;DHT22;17567;48.382;9.102;2023-04-03T02:48:08;2.30;99.90
30851;DHT22;17567;48.382;9.102;2023-04-03T02:53:08;2.30;99.90
30851;DHT22;17567;48.382;9.102;2023-04-03T02:58:09;2.40;99.90
30851;DHT22;17567;48.382;9.102;2023-04-03T03:03:10;2.40;99.90
30851;DHT22;17567;48.382;9.102;2023-04-03T03:08:10;2.50;99.90
30851;DHT22;17567;48.382;9.102;2023-04-03T03:13:11;2.60;99.90
30851;DHT22;17567;48.382;9.102;2023-04-03T03:18:11;2.50;99.90
30851;DHT22;17567;48.382;9.102;2023-04-03T03:23:12;2.50;99.90
30851;DHT22;17567;48.382;9.102;2023-04-03T03:28:13;2.50;99.90
30851;DHT22;17567;48.382;9.102;2023-04-03T03:33:13;2.50;99.90
30851;DHT22;17567;48.382;9.102;2023-04-03T03:38:14;2.50;99.90
30851;DHT22;17567;48.382;9.102;2023-04-03T03:43:15;2.40;99.90
30851;DHT22;17567;48.382;9.102;2023-04-03T03:48:16;2.40;99.90
30851;DHT22;17567;48.382;9.102;2023-04-03T03:53:17;2.40;99.90
30851;DHT22;17567;48.382;9.102;2023-04-03T03:58:18;2.40;99.90
30851;DHT22;17567;48.382;9.102;2023-04-03T04:03:18;2.40;99.90
30851;DHT22;17567;48.382;9.102;2023-04-03T04:08:19;2.40;99.90
30851;DHT22;17567;48.382;9.102;2023-04-03T04:13:20;2.30;99.90
30851;DHT22;17567;48.382;9.102;2023-04-03T04:18:21;2.40;99.90
30851;DHT22;17567;48.382;9.102;2023-04-03T04:23:22;2.10;99.90
30851;DHT22;17567;48.382;9.102;2023-04-03T04:28:23;2.10;99.90
30851;DHT22;17567;48.382;9.102;2023-04-03T04:33:24;2.20;99.90
30851;DHT22;17567;48.382;9.102;2023-04-03T04:38:25;2.30;99.90
30851;DHT22;17567;48.382;9.102;2023-04-03T04:43:25;2.40;99.90
30851;DHT22;17567;48.382;9.102;2023-04-03T04:48:26;2.30;99.90
30851;DHT22;17567;48.382;9.102;2023-04-03T04:53:27;2.30;99.90
30851;DHT22;17567;48.382;9.102;2023-04-03T04:58:27;2.30;99.90
30851;DHT22;17567;48.382;9.102;2023-04-03T05:03:28;2.20;99.90
30851;DHT22;17567;48.382;9.102;2023-04-03T05:08:29;2.10;99.90
30851;DHT22;17567;48.382;9.102;2023-04-03T05:13:29;2.10;99.90
30851;DHT22;17567;48.382;9.102;2023-04-03T05:18:30;1.90;99.90
30851;DHT22;17567;48.382;9.102;2023-04-03T05:23:31;1.90;99.90
30851;DHT22;17567;48.382;9.102;2023-04-03T05:28:32;2.00;99.90
30851;DHT22;17567;48.382;9.102;2023-04-03T05:33:32;1.90;99.90
30851;DHT22;17567;48.382;9.102;2023-04-03T05:38:33;1.90;99.90
30851;DHT22;17567;48.382;9.102;2023-04-03T05:43:34;1.90;99.90
30851;DHT22;17567;48.382;9.102;2023-04-03T05:48:38;1.90;99.90
30851;DHT22;17567;48.382;9.102;2023-04-03T05:53:38;1.90;99.90
30851;DHT22;17567;48.382;9.102;2023-04-03T05:58:39;1.80;99.90
30851;DHT22;17567;48.382;9.102;2023-04-03T06:03:40;2.00;99.90
30851;DHT22;17567;48.382;9.102;2023-04-03T06:08:40;2.00;99.90
30851;DHT22;17567;48.382;9.102;2023-04-03T06:13:41;1.80;99.90
30851;DHT22;17567;48.382;9.102;2023-04-03T06:18:42;1.80;99.90
30851;DHT22;17567;48.382;9.102;2023-04-03T06:23:42;1.80;99.90
30851;DHT22;17567;48.382;9.102;2023-04-03T06:28:43;1.80;99.90
30851;DHT22;17567;48.382;9.102;2023-04-03T06:33:43;1.90;99.90
30851;DHT22;17567;48.382;9.102;2023-04-03T06:38:44;1.90;99.90
30851;DHT22;17567;48.382;9.102;2023-04-03T06:43:45;2.00;99.90
30851;DHT22;17567;48.382;9.102;2023-04-03T06:48:46;2.00;99.90
30851;DHT22;17567;48.382;9.102;2023-04-03T06:53:49;2.20;99.90
30851;DHT22;17567;48.382;9.102;2023-04-03T06:58:51;2.20;99.90
30851;DHT22;17567;48.382;9.102;2023-04-03T07:03:55;2.20;99.90
30851;DHT22;17567;48.382;9.102;2023-04-03T07:08:55;2.40;99.90
30851;DHT22;17567;48.382;9.102;2023-04-03T07:13:56;2.30;99.90
30851;DHT22;17567;48.382;9.102;2023-04-03T07:18:57;2.50;99.90
30851;DHT22;17567;48.382;9.102;2023-04-03T07:23:57;2.60;99.90
30851;DHT22;17567;48.382;9.102;2023-04-03T07:28:58;2.70;99.90
30851;DHT22;17567;48.382;9.102;2023-04-03T07:33:59;3.00;99.90
30851;DHT22;17567;48.382;9.102;2023-04-03T07:39:00;3.00;99.90
30851;DHT22;17567;48.382;9.102;2023-04-03T07:44:01;3.10;99.90
30851;DHT22;17567;48.382;9.102;2023-04-03T07:49:02;3.00;99.90
30851;DHT22;17567;48.382;9.102;2023-04-03T07:54:03;3.10;99.90
30851;DHT22;17567;48.382;9.102;2023-04-03T07:59:04;3.20;99.90
30851;DHT22;17567;48.382;9.102;2023-04-03T08:04:05;3.40;99.90
30851;DHT22;17567;48.382;9.102;2023-04-03T08:09:07;3.60;99.90
30851;DHT22;17567;48.382;9.102;2023-04-03T08:14:08;3.70;99.90
30851;DHT22;17567;48.382;9.102;2023-04-03T08:19:16;3.70;99.90
30851;DHT22;17567;48.382;9.102;2023-04-03T08:24:18;3.90;99.90
30851;DHT22;17567;48.382;9.102;2023-04-03T08:29:18;3.90;99.90
30851;DHT22;17567;48.382;9.102;2023-04-03T08:34:19;3.70;99.90
30851;DHT22;17567;48.382;9.102;2023-04-03T08:39:20;3.80;99.90
30851;DHT22;17567;48.382;9.102;2023-04-03T08:44:55;3.90;99.90
30851;DHT22;17567;48.382;9.102;2023-04-03T08:50:01;4.10;99.90
30851;DHT22;17567;48.382;9.102;2023-04-03T08:55:24;3.80;99.90
30851;DHT22;17567;48.382;9.102;2023-04-03T09:00:29;3.80;99.90
30851;DHT22;17567;48.382;9.102;2023-04-03T09:10:55;4.10;99.90
30851;DHT22;17567;48.382;9.102;2023-04-03T09:16:00;4.20;99.90
30851;DHT22;17567;48.382;9.102;2023-04-03T09:21:25;4.40;99.90
30851;DHT22;17567;48.382;9.102;2023-04-03T09:26:43;4.40;99.90
30851;DHT22;17567;48.382;9.102;2023-04-03T09:31:47;4.40;99.90
30851;DHT22;17567;48.382;9.102;2023-04-03T09:36:51;4.60;99.90
30851;DHT22;17567;48.382;9.102;2023-04-03T09:42:23;4.60;99.90
30851;DHT22;17567;48.382;9.102;2023-04-03T09:47:29;4.70;99.90
30851;DHT22;17567;48.382;9.102;2023-04-03T09:52:30;4.90;99.90
30851;DHT22;17567;48.382;9.102;2023-04-03T09:57:33;4.90;99.90
30851;DHT22;17567;48.382;9.102;2023-04-03T10:02:39;5.10;99.90
30851;DHT22;17567;48.382;9.102;2023-04-03T10:07:39;4.90;99.90
30851;DHT22;17567;48.382;9.102;2023-04-03T10:12:41;4.90;99.90
30851;DHT22;17567;48.382;9.102;2023-04-03T10:18:02;5.10;99.90
30851;DHT22;17567;48.382;9.102;2023-04-03T10:23:36;5.20;99.90
30851;DHT22;17567;48.382;9.102;2023-04-03T10:49:39;5.60;99.90
30851;DHT22;17567;48.382;9.102;2023-04-03T10:59:55;5.60;99.90
30851;DHT22;17567;48.382;9.102;2023-04-03T11:05:02;5.50;99.90
30851;DHT22;17567;48.382;9.102;2023-04-03T11:10:12;5.60;99.90
30851;DHT22;17567;48.382;9.102;2023-04-03T11:15:16;5.70;99.90
30851;DHT22;17567;48.382;9.102;2023-04-03T11:20:19;5.30;99.90
30851;DHT22;17567;48.382;9.102;2023-04-03T11:25:23;5.40;99.90
30851;DHT22;17567;48.382;9.102;2023-04-03T11:35:48;5.30;99.90
30851;DHT22;17567;48.382;9.102;2023-04-03T11:40:50;5.60;99.90
30851;DHT22;17567;48.382;9.102;2023-04-03T11:46:02;5.80;99.90
30851;DHT22;17567;48.382;9.102;2023-04-03T12:01:51;5.50;99.90
30851;DHT22;17567;48.382;9.102;2023-04-03T12:07:12;5.60;99.90
30851;DHT22;17567;48.382;9.102;2023-04-03T12:12:33;5.70;99.90
30851;DHT22;17567;48.382;9.102;2023-04-03T12:17:34;5.40;99.90
30851;DHT22;17567;48.382;9.102;2023-04-03T12:22:34;5.30;99.90
30851;DHT22;17567;48.382;9.102;2023-04-03T12:27:40;5.50;99.90
30851;DHT22;17567;48.382;9.102;2023-04-03T12:32:51;5.30;99.90
30851;DHT22;17567;48.382;9.102;2023-04-03T12:48:37;5.30;99.90
30851;DHT22;17567;48.382;9.102;2023-04-03T12:53:38;5.40;99.90
30851;DHT22;17567;48.382;9.102;2023-04-03T12:58:39;5.10;99.90
30851;DHT22;17567;48.382;9.102;2023-04-03T13:03:43;5.20;99.90
30851;DHT22;17567;48.382;9.102;2023-04-03T13:08:56;5.40;99.90
30851;DHT22;17567;48.382;9.102;2023-04-03T13:14:03;5.40;99.90
30851;DHT22;17567;48.382;9.102;2023-04-03T13:19:16;5.60;99.90
30851;DHT22;17567;48.382;9.102;2023-04-03T13:24:17;5.40;99.90
30851;DHT22;17567;48.382;9.102;2023-04-03T13:29:30;5.50;99.90
30851;DHT22;17567;48.382;9.102;2023-04-03T13:34:41;5.50;99.90
30851;DHT22;17567;48.382;9.102;2023-04-03T13:39:42;5.30;99.90
30851;DHT22;17567;48.382;9.102;2023-04-03T13:44:43;5.40;99.90
30851;DHT22;17567;48.382;9.102;2023-04-03T13:55:24;5.20;99.90
30851;DHT22;17567;48.382;9.102;2023-04-03T14:05:51;5.20;99.90
30851;DHT22;17567;48.382;9.102;2023-04-03T14:10:53;5.20;99.90
30851;DHT22;17567;48.382;9.102;2023-04-03T14:15:54;5.00;99.90
30851;DHT22;17567;48.382;9.102;2023-04-03T14:20:54;4.80;99.90
30851;DHT22;17567;48.382;9.102;2023-04-03T14:25:55;5.00;99.90
30851;DHT22;17567;48.382;9.102;2023-04-03T14:30:56;4.80;99.90
30851;DHT22;17567;48.382;9.102;2023-04-03T14:35:56;4.90;99.90
30851;DHT22;17567;48.382;9.102;2023-04-03T14:40:58;5.10;99.90
30851;DHT22;17567;48.382;9.102;2023-04-03T14:45:58;5.60;99.90
30851;DHT22;17567;48.382;9.102;2023-04-03T14:50:59;7.00;99.90
30851;DHT22;17567;48.382;9.102;2023-04-03T14:56:00;7.10;99.90
30851;DHT22;17567;48.382;9.102;2023-04-03T15:01:00;7.10;99.90
30851;DHT22;17567;48.382;9.102;2023-04-03T15:06:01;7.10;99.90
30851;DHT22;17567;48.382;9.102;2023-04-03T15:11:02;6.70;99.90
30851;DHT22;17567;48.382;9.102;2023-04-03T15:16:03;6.40;99.90
30851;DHT22;17567;48.382;9.102;2023-04-03T15:21:05;5.90;99.90
30851;DHT22;17567;48.382;9.102;2023-04-03T15:26:06;6.10;99.90
30851;DHT22;17567;48.382;9.102;2023-04-03T15:31:07;6.00;99.90
30851;DHT22;17567;48.382;9.102;2023-04-03T15:36:08;6.00;99.90
30851;DHT22;17567;48.382;9.102;2023-04-03T15:41:09;6.00;99.90
30851;DHT22;17567;48.382;9.102;2023-04-03T15:46:09;5.60;99.90
30851;DHT22;17567;48.382;9.102;2023-04-03T15:51:10;5.50;99.90
30851;DHT22;17567;48.382;9.102;2023-04-03T15:56:11;5.40;99.90
30851;DHT22;17567;48.382;9.102;2023-04-03T16:01:12;5.10;99.90
30851;DHT22;17567;48.382;9.102;2023-04-03T16:06:14;5.00;99.90
30851;DHT22;17567;48.382;9.102;2023-04-03T16:11:15;5.30;99.90
30851;DHT22;17567;48.382;9.102;2023-04-03T16:16:16;5.40;99.90
30851;DHT22;17567;48.382;9.102;2023-04-03T16:21:17;5.60;99.90
30851;DHT22;17567;48.382;9.102;2023-04-03T16:26:18;5.70;99.90
30851;DHT22;17567;48.382;9.102;2023-04-03T16:31:19;5.60;99.90
30851;DHT22;17567;48.382;9.102;2023-04-03T16:36:20;5.40;99.90
30851;DHT22;17567;48.382;9.102;2023-04-03T16:41:20;5.40;99.90
30851;DHT22;17567;48.382;9.102;2023-04-03T16:46:21;5.30;99.90
30851;DHT22;17567;48.382;9.102;2023-04-03T16:51:21;5.00;99.90
30851;DHT22;17567;48.382;9.102;2023-04-03T16:56:23;5.00;99.90
30851;DHT22;17567;48.382;9.102;2023-04-03T17:01:25;5.00;99.90
30851;DHT22;17567;48.382;9.102;2023-04-03T17:06:26;4.70;99.90
30851;DHT22;17567;48.382;9.102;2023-04-03T17:11:27;4.70;99.90
30851;DHT22;17567;48.382;9.102;2023-04-03T17:16:28;4.50;99.90
30851;DHT22;17567;48.382;9.102;2023-04-03T17:21:30;4.40;99.90
30851;DHT22;17567;48.382;9.102;2023-04-03T17:26:31;4.40;99.90
30851;DHT22;17567;48.382;9.102;2023-04-03T17:31:32;4.30;99.90
30851;DHT22;17567;48.382;9.102;2023-04-03T17:36:33;4.20;99.90
30851;DHT22;17567;48.382;9.102;2023-04-03T17:41:34;4.20;99.90
30851;DHT22;17567;48.382;9.102;2023-04-03T17:46:34;4.00;99.90
30851;DHT22;17567;48.382;9.102;2023-04-03T17:51:35;3.90;99.90
30851;DHT22;17567;48.382;9.102;2023-04-03T17:56:36;3.80;99.90
30851;DHT22;17567;48.382;9.102;2023-04-03T18:01:36;3.70;99.90
30851;DHT22;17567;48.382;9.102;2023-04-03T18:11:50;3.50;99.90
30851;DHT22;17567;48.382;9.102;2023-04-03T18:16:51;3.60;99.90
30851;DHT22;17567;48.382;9.102;2023-04-03T18:27:06;3.30;99.90
30851;DHT22;17567;48.382;9.102;2023-04-03T18:32:09;3.20;99.90
30851;DHT22;17567;48.382;9.102;2023-04-03T18:37:10;3.10;99.90
30851;DHT22;17567;48.382;9.102;2023-04-03T18:42:17;3.00;99.90
30851;DHT22;17567;48.382;9.102;2023-04-03T18:47:19;3.10;99.90
30851;DHT22;17567;48.382;9.102;2023-04-03T18:52:20;3.00;99.90
30851;DHT22;17567;48.382;9.102;2023-04-03T18:57:21;2.90;99.90
30851;DHT22;17567;48.382;9.102;2023-04-03T19:02:21;2.90;99.90
30851;DHT22;17567;48.382;9.102;2023-04-03T19:07:25;2.90;99.90
30851;DHT22;17567;48.382;9.102;2023-04-03T19:12:27;2.80;99.90
30851;DHT22;17567;48.382;9.102;2023-04-03T19:17:27;2.70;99.90
30851;DHT22;17567;48.382;9.102;2023-04-03T19:22:28;2.70;99.90
30851;DHT22;17567;48.382;9.102;2023-04-03T19:27:30;2.60;99.90
30851;DHT22;17567;48.382;9.102;2023-04-03T19:32:31;2.70;99.90
30851;DHT22;17567;48.382;9.102;2023-04-03T19:37:32;2.60;99.90
30851;DHT22;17567;48.382;9.102;2023-04-03T19:42:33;2.60;99.90
30851;DHT22;17567;48.382;9.102;2023-04-03T19:47:36;2.50;99.90
30851;DHT22;17567;48.382;9.102;2023-04-03T19:52:37;2.50;99.90
30851;DHT22;17567;48.382;9.102;2023-04-03T19:57:38;2.60;99.90
30851;DHT22;17567;48.382;9.102;2023-04-03T20:02:38;2.60;99.90
30851;DHT22;17567;48.382;9.102;2023-04-03T20:07:39;2.60;99.90
30851;DHT22;17567;48.382;9.102;2023-04-03T20:12:40;2.60;99.90
30851;DHT22;17567;48.382;9.102;2023-04-03T20:17:40;2.60;99.90
30851;DHT22;17567;48.382;9.102;2023-04-03T20:22:41;2.60;99.90
30851;DHT22;17567;48.382;9.102;2023-04-03T20:27:42;2.70;99.90
30851;DHT22;17567;48.382;9.102;2023-04-03T20:32:42;2.70;99.90
30851;DHT22;17567;48.382;9.102;2023-04-03T20:37:43;2.60;99.90
30851;DHT22;17567;48.382;9.102;2023-04-03T20:42:44;2.60;99.90
30851;DHT22;17567;48.382;9.102;2023-04-03T20:47:44;2.50;99.90
30851;DHT22;17567;48.382;9.102;2023-04-03T20:52:45;2.40;99.90
30851;DHT22;17567;48.382;9.102;2023-04-03T20:57:48;2.30;99.90
30851;DHT22;17567;48.382;9.102;2023-04-03T21:02:49;2.30;99.90
30851;DHT22;17567;48.382;9.102;2023-04-03T21:19:07;2.00;99.90
30851;DHT22;17567;48.382;9.102;2023-04-03T21:24:09;1.90;99.90
30851;DHT22;17567;48.382;9.102;2023-04-03T21:29:10;1.90;99.90
30851;DHT22;17567;48.382;9.102;2023-04-03T21:34:11;1.80;99.90
30851;DHT22;17567;48.382;9.102;2023-04-03T21:39:13;1.80;99.90
30851;DHT22;17567;48.382;9.102;2023-04-03T21:44:13;1.70;99.90
30851;DHT22;17567;48.382;9.102;2023-04-03T21:49:14;1.60;99.90
30851;DHT22;17567;48.382;9.102;2023-04-03T21:54:15;1.60;99.90
30851;DHT22;17567;48.382;9.102;2023-04-03T21:59:16;1.50;99.90
30851;DHT22;17567;48.382;9.102;2023-04-03T22:04:17;1.40;99.90
30851;DHT22;17567;48.382;9.102;2023-04-03T22:09:17;1.40;99.90
30851;DHT22;17567;48.382;9.102;2023-04-03T22:14:18;1.30;99.90
30851;DHT22;17567;48.382;9.102;2023-04-03T22:19:19;1.20;99.90
30851;DHT22;17567;48.382;9.102;2023-04-03T22:24:22;1.10;99.90
30851;DHT22;17567;48.382;9.102;2023-04-03T22:29:23;1.00;99.90
30851;DHT22;17567;48.382;9.102;2023-04-03T22:34:24;0.90;99.90
30851;DHT22;17567;48.382;9.102;2023-04-03T22:39:25;1.00;99.90
30851;DHT22;17567;48.382;9.102;2023-04-03T22:44:26;0.90;99.90
30851;DHT22;17567;48.382;9.102;2023-04-03T22:49:27;0.80;99.90
30851;DHT22;17567;48.382;9.102;2023-04-03T22:54:28;0.70;99.90
30851;DHT22;17567;48.382;9.102;2023-04-03T22:59:28;1.10;99.90
30851;DHT22;17567;48.382;9.102;2023-04-03T23:04:29;0.90;99.90
30851;DHT22;17567;48.382;9.102;2023-04-03T23:09:30;1.20;99.90
30851;DHT22;17567;48.382;9.102;2023-04-03T23:14:31;0.60;99.90
30851;DHT22;17567;48.382;9.102;2023-04-03T23:19:32;0.60;99.90
30851;DHT22;17567;48.382;9.102;2023-04-03T23:24:34;0.60;99.90
30851;DHT22;17567;48.382;9.102;2023-04-03T23:29:34;0.70;99.90
30851;DHT22;17567;48.382;9.102;2023-04-03T23:34:35;0.40;99.90
30851;DHT22;17567;48.382;9.102;2023-04-03T23:39:36;0.30;99.90
30851;DHT22;17567;48.382;9.102;2023-04-03T23:44:37;0.40;99.90
30851;DHT22;17567;48.382;9.102;2023-04-03T23:49:37;0.30;99.90
30851;DHT22;17567;48.382;9.102;2023-04-03T23:54:38;0.20;99.90
30851;DHT22;17567;48.382;9.102;2023-04-03T23:59:39;-0.10;99.90
